createdAt,value
2022-08-08T00:02:43.064Z,7.57
2022-08-08T00:05:17.282Z,8.30
2022-08-08T00:08:18.690Z,7.40
2022-08-08T00:10:59.974Z,8.18
2022-08-08T00:16:27.189Z,7.90
2022-08-08T00:19:14.955Z,8.13
2022-08-08T00:21:49.968Z,8.70
2022-08-08T00:24:29.941Z,8.38
2022-08-08T00:27:05.870Z,8.35
2022-08-08T00:29:44.782Z,7.63
2022-08-08T00:32:34.480Z,9.40
2022-08-08T00:35:25.475Z,8.15
2022-08-08T00:38:07.583Z,8.40
2022-08-08T00:41:55.565Z,8.50
2022-08-08T00:44:13.956Z,8.20
2022-08-08T00:47:19.516Z,8.18
2022-08-08T00:50:26.106Z,7.82
2022-08-08T00:53:15.518Z,8.45
2022-08-08T00:56:11.257Z,7.78
2022-08-08T00:58:43.736Z,8.27
2022-08-08T01:04:48.436Z,8.05
2022-08-08T01:07:34.484Z,8.55
2022-08-08T01:10:29.852Z,9.07
2022-08-08T01:13:38.023Z,8.13
2022-08-08T01:16:17.104Z,8.05
2022-08-08T01:18:54.038Z,8.32
2022-08-08T01:22:11.849Z,8.05
2022-08-08T01:25:08.333Z,7.65
2022-08-08T01:28:07.038Z,8.30
2022-08-08T01:30:57.262Z,7.35
2022-08-08T01:34:05.926Z,8.38
2022-08-08T01:36:55.871Z,7.38
2022-08-08T01:40:02.630Z,6.57
2022-08-08T01:42:52.454Z,7.13
2022-08-08T01:45:28.769Z,8.50
2022-08-08T01:48:31.321Z,8.25
2022-08-08T01:52:49.651Z,8.77
2022-08-08T01:55:46.044Z,8.10
2022-08-08T01:58:17.283Z,7.95
2022-08-08T02:01:15.947Z,8.52
2022-08-08T02:04:15.272Z,8.40
2022-08-08T02:07:09.293Z,8.75
2022-08-08T02:10:03.364Z,8.05
2022-08-08T02:13:53.826Z,7.55
2022-08-08T02:16:24.283Z,8.00
2022-08-08T02:19:56.843Z,9.73
2022-08-08T02:22:52.559Z,15.30
2022-08-08T02:26:12.115Z,13.70
2022-08-08T02:29:18.948Z,13.30
2022-08-08T02:32:29.287Z,11.27
2022-08-08T02:35:24.890Z,9.32
2022-08-08T02:38:30.035Z,8.35
2022-08-08T02:41:58.758Z,9.18
2022-08-08T02:44:56.723Z,7.95
2022-08-08T02:48:07.725Z,7.93
2022-08-08T02:51:29.936Z,7.72
2022-08-08T02:57:45.104Z,7.80
2022-08-08T03:00:30.878Z,7.60
2022-08-08T03:10:32.806Z,7.40
2022-08-08T03:15:56.989Z,7.43
2022-08-08T03:16:35.675Z,7.03
2022-08-08T03:19:48.882Z,7.40
2022-08-08T03:22:38.925Z,7.57
2022-08-08T03:25:18.211Z,7.55
2022-08-08T03:28:21.725Z,8.07
2022-08-08T03:31:07.862Z,8.13
2022-08-08T03:33:55.838Z,7.30
2022-08-08T03:36:30.457Z,7.45
2022-08-08T03:39:14.921Z,7.32
2022-08-08T03:42:28.596Z,7.45
2022-08-08T03:44:51.958Z,7.70
2022-08-08T03:47:23.507Z,7.20
2022-08-08T03:50:00.044Z,7.03
2022-08-08T03:55:57.428Z,7.63
2022-08-08T03:58:35.760Z,7.65
2022-08-08T04:01:23.961Z,7.57
2022-08-08T04:04:02.017Z,7.85
2022-08-08T04:06:38.747Z,6.90
2022-08-08T04:09:11.718Z,7.47
2022-08-08T04:11:58.721Z,6.95
2022-08-08T04:14:45.507Z,6.80
2022-08-08T04:17:15.518Z,6.88
2022-08-08T04:20:04.864Z,7.15
2022-08-08T04:22:35.050Z,7.10
2022-08-08T04:25:05.736Z,7.38
2022-08-08T04:28:02.977Z,7.10
2022-08-08T04:30:23.816Z,7.13
2022-08-08T04:33:01.146Z,7.05
2022-08-08T04:35:36.949Z,7.05
2022-08-08T04:38:10.644Z,6.90
2022-08-08T04:40:53.338Z,7.07
2022-08-08T04:43:31.733Z,7.07
2022-08-08T04:46:19.277Z,7.40
2022-08-08T04:48:49.444Z,7.95
2022-08-08T04:51:23.628Z,7.78
2022-08-08T04:54:38.726Z,7.65
2022-08-08T04:56:58.256Z,6.55
2022-08-08T04:59:26.288Z,7.78
2022-08-08T05:01:59.473Z,7.38
2022-08-08T05:05:39.476Z,7.55
2022-08-08T05:08:05.035Z,8.15
2022-08-08T05:10:34.133Z,7.68
2022-08-08T05:13:03.364Z,8.20
2022-08-08T05:16:54.432Z,8.32
2022-08-08T05:18:28.179Z,7.95
2022-08-08T05:20:56.078Z,7.93
2022-08-08T05:23:24.276Z,7.97
2022-08-08T05:26:00.144Z,7.82
2022-08-08T05:28:55.897Z,8.25
2022-08-08T05:32:02.404Z,8.40
2022-08-08T05:34:18.788Z,8.25
2022-08-08T05:36:49.816Z,7.82
2022-08-08T05:39:22.678Z,7.55
2022-08-08T05:42:40.879Z,6.28
2022-08-08T05:45:25.372Z,6.40
2022-08-08T05:48:09.794Z,6.70
2022-08-08T05:50:40.073Z,7.10
2022-08-08T05:53:23.165Z,8.25
2022-08-08T05:56:22.812Z,6.93
2022-08-08T05:59:03.758Z,7.35
2022-08-08T06:01:56.632Z,7.05
2022-08-08T06:04:30.148Z,6.72
2022-08-08T06:07:01.793Z,6.63
2022-08-08T06:09:59.941Z,5.90
2022-08-08T06:12:29.843Z,5.32
2022-08-08T06:15:02.863Z,4.70
2022-08-08T06:17:51.035Z,4.10
2022-08-08T06:20:23.073Z,4.95
2022-08-08T06:22:54.038Z,3.50
2022-08-08T06:25:33.269Z,4.10
2022-08-08T06:28:29.340Z,4.10
2022-08-08T06:31:01.694Z,3.42
2022-08-08T06:34:27.275Z,3.83
2022-08-08T06:36:41.763Z,4.63
2022-08-08T06:39:33.233Z,4.63
2022-08-08T06:42:30.566Z,4.20
2022-08-08T06:45:05.748Z,4.38
2022-08-08T06:47:52.657Z,3.60
2022-08-08T06:50:31.738Z,5.65
2022-08-08T06:53:09.611Z,3.15
2022-08-08T06:55:43.297Z,3.47
2022-08-08T06:58:11.689Z,3.17
2022-08-08T07:00:41.181Z,3.67
2022-08-08T07:03:52.381Z,5.50
2022-08-08T07:06:10.773Z,3.67
2022-08-08T07:08:48.051Z,3.05
2022-08-08T07:11:30.253Z,3.03
2022-08-08T07:14:17.814Z,4.53
2022-08-08T07:17:19.008Z,3.80
2022-08-08T07:20:11.197Z,5.43
2022-08-08T07:22:49.782Z,3.08
2022-08-08T07:25:19.415Z,3.75
2022-08-08T07:28:02.170Z,3.60
2022-08-08T07:30:36.870Z,3.17
2022-08-08T07:33:05.706Z,2.85
2022-08-08T07:35:42.278Z,2.65
2022-08-08T07:38:20.614Z,1.70
2022-08-08T07:41:04.322Z,1.70
2022-08-08T07:43:37.611Z,2.00
2022-08-08T07:46:23.310Z,2.60
2022-08-08T07:48:53.931Z,2.60
2022-08-08T07:51:44.843Z,2.40
2022-08-08T07:54:47.111Z,1.98
2022-08-08T07:57:25.666Z,2.05
2022-08-08T08:00:00.016Z,2.38
2022-08-08T08:02:39.566Z,2.72
2022-08-08T08:05:32.913Z,9.70
2022-08-08T08:08:52.513Z,2.42
2022-08-08T08:11:38.413Z,2.80
2022-08-08T08:14:49.580Z,3.05
2022-08-08T08:17:20.899Z,2.35
2022-08-08T08:19:55.800Z,2.58
2022-08-08T08:22:31.659Z,3.03
2022-08-08T08:25:08.224Z,2.75
2022-08-08T08:27:52.283Z,5.68
2022-08-08T08:30:25.015Z,2.65
2022-08-08T08:32:55.010Z,2.67
2022-08-08T08:35:29.701Z,2.60
2022-08-08T08:38:17.312Z,2.20
2022-08-08T08:40:51.451Z,3.88
2022-08-08T08:43:26.973Z,2.50
2022-08-08T08:46:03.357Z,2.38
2022-08-08T08:48:34.282Z,1.80
2022-08-08T08:51:04.202Z,2.28
2022-08-08T08:53:56.407Z,2.63
2022-08-08T08:56:29.424Z,1.80
2022-08-08T08:59:05.256Z,1.85
2022-08-08T09:01:43.911Z,1.70
2022-08-08T09:04:30.946Z,2.83
2022-08-08T09:07:12.096Z,1.45
2022-08-08T09:12:45.283Z,1.70
2022-08-08T09:15:24.194Z,1.45
2022-08-08T09:18:07.558Z,1.70
2022-08-08T09:21:58.260Z,1.70
2022-08-08T09:26:39.399Z,1.27
2022-08-08T09:29:22.190Z,2.72
2022-08-08T09:32:03.328Z,1.55
2022-08-08T09:34:39.751Z,2.22
2022-08-08T09:37:51.394Z,1.50
2022-08-08T09:40:11.323Z,1.30
2022-08-08T09:42:51.347Z,1.52
2022-08-08T09:46:00.786Z,1.73
2022-08-08T09:48:42.671Z,1.30
2022-08-08T09:52:01.795Z,1.48
2022-08-08T09:54:42.539Z,1.77
2022-08-08T09:57:19.097Z,1.60
2022-08-08T10:00:21.053Z,1.75
2022-08-08T10:06:18.884Z,1.50
2022-08-08T10:08:48.477Z,1.75
2022-08-08T10:12:26.039Z,1.50
2022-08-08T10:14:28.646Z,1.75
2022-08-08T10:17:57.195Z,1.40
2022-08-08T10:20:01.248Z,1.50
2022-08-08T10:22:35.882Z,1.63
2022-08-08T10:25:15.542Z,1.75
2022-08-08T10:27:51.253Z,1.58
2022-08-08T10:30:57.005Z,1.50
2022-08-08T10:33:17.973Z,1.70
2022-08-08T10:36:09.290Z,1.75
2022-08-08T10:38:46.552Z,1.58
2022-08-08T10:41:20.023Z,1.88
2022-08-08T10:43:50.324Z,1.40
2022-08-08T10:46:29.524Z,1.35
2022-08-08T10:48:59.618Z,1.50
2022-08-08T10:51:40.823Z,4.65
2022-08-08T10:54:25.130Z,1.90
2022-08-08T10:56:59.782Z,1.75
2022-08-08T10:59:31.232Z,1.33
2022-08-08T11:02:07.562Z,1.50
2022-08-08T11:08:38.594Z,1.40
2022-08-08T11:10:33.408Z,1.73
2022-08-08T11:13:32.109Z,1.40
2022-08-08T11:15:53.114Z,1.23
2022-08-08T11:18:30.557Z,1.38
2022-08-08T11:21:10.374Z,1.38
2022-08-08T11:24:02.109Z,0.93
2022-08-08T11:26:34.260Z,1.25
2022-08-08T11:29:07.997Z,1.38
2022-08-08T11:32:00.606Z,1.30
2022-08-08T11:34:58.489Z,1.30
2022-08-08T11:38:35.148Z,1.20
2022-08-08T11:40:15.980Z,1.40
2022-08-08T11:42:52.082Z,1.15
2022-08-08T11:45:22.616Z,1.70
2022-08-08T11:50:35.009Z,1.52
2022-08-08T11:53:06.270Z,1.40
2022-08-08T11:55:37.655Z,1.40
2022-08-08T11:58:15.245Z,1.50
2022-08-08T12:00:56.508Z,1.33
2022-08-08T12:06:01.929Z,0.93
2022-08-08T12:08:36.857Z,1.50
2022-08-08T12:11:26.838Z,1.25
2022-08-08T12:14:04.622Z,1.95
2022-08-08T12:16:44.671Z,1.90
2022-08-08T12:19:15.407Z,1.70
2022-08-08T12:21:58.740Z,1.85
2022-08-08T12:24:29.917Z,1.40
2022-08-08T12:26:58.722Z,1.70
2022-08-08T12:29:40.889Z,1.50
2022-08-08T12:32:20.317Z,1.67
2022-08-08T12:35:18.096Z,1.50
2022-08-08T12:38:17.957Z,2.00
2022-08-08T12:40:58.450Z,1.35
2022-08-08T12:43:31.945Z,1.70
2022-08-08T12:46:03.501Z,1.73
2022-08-08T12:48:37.448Z,1.35
2022-08-08T12:51:10.744Z,1.70
2022-08-08T12:53:58.492Z,1.63
2022-08-08T12:56:53.336Z,1.55
2022-08-08T12:59:36.249Z,1.60
2022-08-08T13:02:06.933Z,1.63
2022-08-08T13:07:07.225Z,1.70
2022-08-08T13:10:00.730Z,2.85
2022-08-08T13:12:44.458Z,1.55
2022-08-08T13:15:39.648Z,1.10
2022-08-08T13:18:11.863Z,2.25
2022-08-08T13:20:48.822Z,1.10
2022-08-08T13:23:41.417Z,2.10
2022-08-08T13:26:14.787Z,2.00
2022-08-08T13:28:45.594Z,1.80
2022-08-08T13:31:17.364Z,1.52
2022-08-08T13:33:49.824Z,1.95
2022-08-08T13:36:44.565Z,1.70
2022-08-08T13:39:17.565Z,1.40
2022-08-08T13:41:58.335Z,1.70
2022-08-08T13:44:30.474Z,1.40
2022-08-08T13:47:01.797Z,1.80
2022-08-08T13:50:34.610Z,1.38
2022-08-08T13:52:37.850Z,2.03
2022-08-08T13:55:06.830Z,1.50
2022-08-08T13:58:06.504Z,1.65
2022-08-08T14:00:27.029Z,1.52
2022-08-08T14:05:34.449Z,2.40
2022-08-08T14:08:06.496Z,2.15
2022-08-08T14:10:45.819Z,2.05
2022-08-08T14:13:31.044Z,2.45
2022-08-08T14:16:07.884Z,2.13
2022-08-08T14:18:53.951Z,2.95
2022-08-08T14:21:39.652Z,2.33
2022-08-08T14:24:09.826Z,2.10
2022-08-08T14:26:46.265Z,2.42
2022-08-08T14:29:30.109Z,2.75
2022-08-08T14:32:08.734Z,2.10
2022-08-08T14:34:39.167Z,2.20
2022-08-08T14:37:12.992Z,2.15
2022-08-08T14:40:06.669Z,2.00
2022-08-08T14:42:54.664Z,1.60
2022-08-08T14:45:33.680Z,2.75
2022-08-08T14:50:47.194Z,2.00
2022-08-08T14:53:15.795Z,2.15
2022-08-08T14:55:43.802Z,2.40
2022-08-08T14:58:16.464Z,2.70
2022-08-08T15:00:49.583Z,1.85
2022-08-08T15:03:18.439Z,1.55
2022-08-08T15:05:54.664Z,1.58
2022-08-08T15:08:35.689Z,1.98
2022-08-08T15:11:09.280Z,1.70
2022-08-08T15:14:03.067Z,1.70
2022-08-08T15:16:34.555Z,2.53
2022-08-08T15:19:03.893Z,2.50
2022-08-08T15:21:32.627Z,1.73
2022-08-08T15:24:00.900Z,1.58
2022-08-08T15:26:29.526Z,1.80
2022-08-08T15:28:57.827Z,1.70
2022-08-08T15:31:49.011Z,1.75
2022-08-08T15:34:29.936Z,3.40
2022-08-08T15:37:02.979Z,3.40
2022-08-08T15:39:38.444Z,2.08
2022-08-08T15:42:13.066Z,1.80
2022-08-08T15:44:46.355Z,2.10
2022-08-08T15:47:16.238Z,2.40
2022-08-08T15:49:48.912Z,2.13
2022-08-08T15:52:21.931Z,2.00
2022-08-08T15:54:51.660Z,2.13
2022-08-08T15:57:24.297Z,1.90
2022-08-08T16:00:05.426Z,2.05
2022-08-08T16:02:50.230Z,2.55
2022-08-08T16:05:21.513Z,3.00
2022-08-08T16:07:53.898Z,1.60
2022-08-08T16:13:08.885Z,1.58
2022-08-08T16:13:32.318Z,1.90
2022-08-08T16:16:13.097Z,1.70
2022-08-08T16:18:57.254Z,1.50
2022-08-08T16:21:29.014Z,1.80
2022-08-08T16:23:58.980Z,1.55
2022-08-08T16:26:34.238Z,1.80
2022-08-08T16:29:10.730Z,1.70
2022-08-08T16:31:49.744Z,2.13
2022-08-08T16:34:22.031Z,1.80
2022-08-08T16:36:52.854Z,2.67
2022-08-08T16:39:59.462Z,1.92
2022-08-08T16:42:17.941Z,2.53
2022-08-08T16:44:54.364Z,2.30
2022-08-08T16:47:40.307Z,2.50
2022-08-08T16:50:14.540Z,2.65
2022-08-08T16:55:02.809Z,2.40
2022-08-08T16:55:54.250Z,2.47
2022-08-08T16:58:26.967Z,4.47
2022-08-08T17:00:59.259Z,3.85
2022-08-08T17:03:59.077Z,3.40
2022-08-08T17:06:37.628Z,3.80
2022-08-08T17:09:04.823Z,2.33
2022-08-08T17:11:39.559Z,2.90
2022-08-08T17:14:19.635Z,2.35
2022-08-08T17:16:57.705Z,2.95
2022-08-08T17:19:31.893Z,2.53
2022-08-08T17:22:11.037Z,2.80
2022-08-08T17:24:41.184Z,3.15
2022-08-08T17:27:10.380Z,2.03
2022-08-08T17:29:43.737Z,2.50
2022-08-08T17:32:28.980Z,2.35
2022-08-08T17:35:54.396Z,2.72
2022-08-08T17:37:51.904Z,2.40
2022-08-08T17:40:22.154Z,2.25
2022-08-08T17:42:51.190Z,2.43
2022-08-08T17:45:23.260Z,2.08
2022-08-08T17:47:53.982Z,2.17
2022-08-08T17:50:23.934Z,3.63
2022-08-08T17:52:53.309Z,2.10
2022-08-08T17:56:05.055Z,2.83
2022-08-08T17:58:09.520Z,2.42
2022-08-08T18:00:38.965Z,2.80
2022-08-08T18:03:13.109Z,2.60
2022-08-08T18:05:48.755Z,2.95
2022-08-08T18:08:38.386Z,2.70
2022-08-08T18:11:15.201Z,3.20
2022-08-08T18:13:47.673Z,3.42
2022-08-08T18:16:16.986Z,2.85
2022-08-08T18:18:57.746Z,3.05
2022-08-08T18:21:59.292Z,3.30
2022-08-08T18:24:19.301Z,2.72
2022-08-08T18:26:54.788Z,2.88
2022-08-08T18:29:30.195Z,3.00
2022-08-08T18:32:07.470Z,3.20
2022-08-08T18:34:40.400Z,2.97
2022-08-08T18:37:33.536Z,2.78
2022-08-08T18:39:58.761Z,3.03
2022-08-08T18:42:26.406Z,3.38
2022-08-08T18:44:55.333Z,3.00
2022-08-08T18:47:26.061Z,2.85
2022-08-08T18:49:58.609Z,3.58
2022-08-08T18:52:34.742Z,3.22
2022-08-08T18:55:10.221Z,3.22
2022-08-08T18:57:43.340Z,3.28
2022-08-08T19:00:20.244Z,3.65
2022-08-08T19:02:55.396Z,2.83
2022-08-08T19:05:31.950Z,3.28
2022-08-08T19:08:25.296Z,3.10
2022-08-08T19:11:01.223Z,3.00
2022-08-08T19:13:53.610Z,3.88
2022-08-08T19:16:23.699Z,3.78
2022-08-08T19:19:00.500Z,3.63
2022-08-08T19:21:33.384Z,3.33
2022-08-08T19:24:05.158Z,3.45
2022-08-08T19:26:37.648Z,4.50
2022-08-08T19:29:06.723Z,3.55
2022-08-08T19:31:35.475Z,3.47
2022-08-08T19:34:29.911Z,3.50
2022-08-08T19:36:59.040Z,4.15
2022-08-08T19:39:35.424Z,4.35
2022-08-08T19:42:07.374Z,4.50
2022-08-08T19:44:42.814Z,4.15
2022-08-08T19:47:16.415Z,4.10
2022-08-08T19:49:59.602Z,4.28
2022-08-08T19:52:37.210Z,4.10
2022-08-08T19:55:13.138Z,3.85
2022-08-08T19:57:45.610Z,4.32
2022-08-08T20:00:29.187Z,3.65
2022-08-08T20:03:14.602Z,3.72
2022-08-08T20:06:13.538Z,5.00
2022-08-08T20:08:40.100Z,4.95
2022-08-08T20:11:14.966Z,3.70
2022-08-08T20:14:32.425Z,4.65
2022-08-08T20:16:35.206Z,4.00
2022-08-08T20:19:06.675Z,3.80
2022-08-08T20:21:38.191Z,4.03
2022-08-08T20:24:07.899Z,3.95
2022-08-08T20:26:38.462Z,3.50
2022-08-08T20:29:11.103Z,4.00
2022-08-08T20:32:08.096Z,4.07
2022-08-08T20:34:31.902Z,4.47
2022-08-08T20:37:02.416Z,3.35
2022-08-08T20:42:09.601Z,3.50
2022-08-08T20:44:38.130Z,4.15
2022-08-08T20:47:22.715Z,3.72
2022-08-08T20:49:55.825Z,3.70
2022-08-08T20:52:28.737Z,3.70
2022-08-08T20:54:57.671Z,4.13
2022-08-08T20:57:27.786Z,3.83
2022-08-08T20:59:57.100Z,3.90
2022-08-08T21:02:27.694Z,3.92
2022-08-08T21:05:01.065Z,3.72
2022-08-08T21:08:33.326Z,4.50
2022-08-08T21:10:20.945Z,3.60
2022-08-08T21:12:52.787Z,4.10
2022-08-08T21:16:06.087Z,4.30
2022-08-08T21:18:11.622Z,4.32
2022-08-08T21:20:42.062Z,4.75
2022-08-08T21:23:13.130Z,3.70
2022-08-08T21:25:48.970Z,4.65
2022-08-08T21:28:33.678Z,4.05
2022-08-08T21:31:21.780Z,4.15
2022-08-08T21:33:50.679Z,4.60
2022-08-08T21:36:28.463Z,3.80
2022-08-08T21:38:58.331Z,3.65
2022-08-08T21:41:28.979Z,4.38
2022-08-08T21:44:12.790Z,4.20
2022-08-08T21:48:04.176Z,3.90
2022-08-08T21:49:30.819Z,4.35
2022-08-08T21:54:35.965Z,4.22
2022-08-08T21:55:01.734Z,3.90
2022-08-08T21:57:42.526Z,3.90
2022-08-08T22:00:14.476Z,3.85
2022-08-08T22:02:44.534Z,3.50
2022-08-08T22:05:15.369Z,3.83
2022-08-08T22:07:47.458Z,4.10
2022-08-08T22:10:32.664Z,4.85
2022-08-08T22:13:17.216Z,5.10
2022-08-08T22:15:59.594Z,5.05
2022-08-08T22:18:33.278Z,5.13
2022-08-08T22:21:14.459Z,6.03
2022-08-08T22:23:50.705Z,6.15
2022-08-08T22:26:28.575Z,4.20
2022-08-08T22:29:13.558Z,4.00
2022-08-08T22:31:58.299Z,4.13
2022-08-08T22:34:39.342Z,5.85
2022-08-08T22:37:27.810Z,5.53
2022-08-08T22:40:00.724Z,4.07
2022-08-08T22:42:34.497Z,4.40
2022-08-08T22:45:12.630Z,4.80
2022-08-08T22:47:48.723Z,5.57
2022-08-08T22:50:28.604Z,4.85
2022-08-08T22:54:29.382Z,4.43
2022-08-08T22:55:57.923Z,4.22
2022-08-08T22:58:33.166Z,3.90
2022-08-08T23:02:01.172Z,4.00
2022-08-08T23:03:56.450Z,4.00
2022-08-08T23:06:27.553Z,3.85
2022-08-08T23:11:57.995Z,4.20
2022-08-08T23:16:54.851Z,3.75
2022-08-08T23:19:32.317Z,4.20
2022-08-08T23:22:04.378Z,20.77
2022-08-08T23:24:36.169Z,4.55
2022-08-08T23:27:06.553Z,4.55
2022-08-08T23:29:34.328Z,4.35
2022-08-08T23:32:04.567Z,5.13
2022-08-08T23:34:35.263Z,4.00
2022-08-08T23:38:00.942Z,5.07
2022-08-08T23:40:18.492Z,5.20
2022-08-08T23:42:51.327Z,3.97
2022-08-08T23:48:59.630Z,4.50
2022-08-08T23:49:06.765Z,4.05
2022-08-08T23:52:06.213Z,3.70
2022-08-08T23:54:43.130Z,3.90
2022-08-08T23:57:38.754Z,3.53
